Hlavní strana
METAR-TAF:

METAR-TAF

Letiště :

Letiště Benátky Marco Polo

Benátky, Itálie

zeměpisná šířka: 45-30N, zeměpisná délka: 012-20E, výška: 2 m

Aktuální stav počasí

Zpráva byla vytvořena před 25 minutami, v 16:20 UTC
Severozápadní vítr 4 kt
Teplota 6°C
Vlhkost vzduchu 61%
Tlak 1023 hPa
Viditelnost 10 km a více
Žádná oblačnost pod 1500 m, nevyskytují se cumulonimby.

METAR: LIPZ 171620Z 32004KT CAVOK 06/M01 Q1023 NOSIG

Čas: 17:45 (16:45 UTC)

Předpověď počasí

Zpráva byla vytvořena před 5 hodinami a 45 minutami, v 11:00 UTC
Předpověď platná od 17 v 12 UTC do 18 v 18 UTC
vítr z různých směrů 5 kt
Viditelnost 10 km a více
Polojasno ve výšce 7000 ft

TAF: LIPZ 171100Z 1712/1818 VRB05KT 9999 SCT070

Stav a předpovědi počasí z více než 4 000 letišť (zprávy METAR a TAF).

Červené a žluté tečky na mapě představují dostupné meteorologické stanice.

Když kurzor umístíte na tečku, zobrazí se název stanice.

Pak kliknutím zobrazíte stav a předpověď počasí.

Chcete-li změnit mapu, kliknutím na zelené tlačítko se znaménkem +mapu přiblížíte, kliknutím na zelené tlačítko se znaménkem – mapu oddálíte a kliknutím na zelené šipky přejdete na sousední mapy.


METAR-TAF: